地図

経路データ

SID SEASON NUMBER BASIN SUBBASIN NAME ISO_TIME NATURE LAT LON WMO_WIND WMO_PRES WMO_AGENCY TRACK_TYPE DIST2LAND LANDFALL IFLAG USA_AGENCY USA_ATCF_ID USA_LAT USA_LON USA_RECORD USA_STATUS USA_WIND USA_PRES USA_SSHS USA_R34_NE USA_R34_SE USA_R34_SW USA_R34_NW USA_R50_NE USA_R50_SE USA_R50_SW USA_R50_NW USA_R64_NE USA_R64_SE USA_R64_SW USA_R64_NW USA_POCI USA_ROCI USA_RMW USA_EYE TOKYO_LAT TOKYO_LON TOKYO_GRADE TOKYO_WIND TOKYO_PRES TOKYO_R50_DIR TOKYO_R50_LONG TOKYO_R50_SHORT TOKYO_R30_DIR TOKYO_R30_LONG TOKYO_R30_SHORT TOKYO_LAND CMA_LAT CMA_LON CMA_CAT CMA_WIND CMA_PRES HKO_LAT HKO_LON HKO_CAT HKO_WIND HKO_PRES NEWDELHI_LAT NEWDELHI_LON NEWDELHI_GRADE NEWDELHI_WIND NEWDELHI_PRES NEWDELHI_CI NEWDELHI_DP NEWDELHI_POCI REUNION_LAT REUNION_LON REUNION_TYPE REUNION_WIND REUNION_PRES REUNION_TNUM REUNION_CI REUNION_RMW REUNION_R34_NE REUNION_R34_SE REUNION_R34_SW REUNION_R34_NW REUNION_R50_NE REUNION_R50_SE REUNION_R50_SW REUNION_R50_NW REUNION_R64_NE REUNION_R64_SE REUNION_R64_SW REUNION_R64_NW BOM_LAT BOM_LON BOM_TYPE BOM_WIND BOM_PRES BOM_TNUM BOM_CI BOM_RMW BOM_R34_NE BOM_R34_SE BOM_R34_SW BOM_R34_NW BOM_R50_NE BOM_R50_SE BOM_R50_SW BOM_R50_NW BOM_R64_NE BOM_R64_SE BOM_R64_SW BOM_R64_NW BOM_ROCI BOM_POCI BOM_EYE BOM_POS_METHOD BOM_PRES_METHOD NADI_LAT NADI_LON NADI_CAT NADI_WIND NADI_PRES WELLINGTON_LAT WELLINGTON_LON WELLINGTON_WIND WELLINGTON_PRES DS824_LAT DS824_LON DS824_STAGE DS824_WIND DS824_PRES TD9636_LAT TD9636_LON TD9636_STAGE TD9636_WIND TD9636_PRES TD9635_LAT TD9635_LON TD9635_WIND TD9635_PRES TD9635_ROCI NEUMANN_LAT NEUMANN_LON NEUMANN_CLASS NEUMANN_WIND NEUMANN_PRES MLC_LAT MLC_LON MLC_CLASS MLC_WIND MLC_PRES USA_GUST BOM_GUST BOM_GUST_PER REUNION_GUST REUNION_GUST_PER USA_SEAHGT USA_SEARAD_NE USA_SEARAD_SE USA_SEARAD_SW USA_SEARAD_NW STORM_SPEED STORM_DIR
1945236N21266 1945 51 NA GM NOT_NAMED 1945-08-24 00:00:00 TS 20.5000 -94.4000 40 hurdat_atl main 218 217 O_____________ hurdat_atl AL051945 20.5000 -94.4000 TS 40 0 9 341
1945236N21266 1945 51 NA GM NOT_NAMED 1945-08-24 03:00:00 TS 20.9075 -94.5498 main 227 218 P_____________ AL051945 20.9075 -94.5498 TS 42 0 9 341
1945236N21266 1945 51 NA GM NOT_NAMED 1945-08-24 06:00:00 TS 21.3000 -94.7000 45 hurdat_atl main 236 236 O_____________ hurdat_atl AL051945 21.3000 -94.7000 TS 45 0 8 340
1945236N21266 1945 51 NA GM NOT_NAMED 1945-08-24 09:00:00 TS 21.6650 -94.8501 main 248 239 P_____________ AL051945 21.6650 -94.8501 TS 47 0 8 338
1945236N21266 1945 51 NA GM NOT_NAMED 1945-08-24 12:00:00 TS 22.0000 -95.0000 50 hurdat_atl main 241 233 O_____________ hurdat_atl AL051945 22.0000 -95.0000 TS 50 0 7 336
1945236N21266 1945 51 NA GM NOT_NAMED 1945-08-24 15:00:00 TS 22.3000 -95.1501 main 230 229 P_____________ AL051945 22.3000 -95.1501 TS 52 0 7 335
1945236N21266 1945 51 NA GM NOT_NAMED 1945-08-24 18:00:00 TS 22.6000 -95.3000 55 hurdat_atl main 234 231 O_____________ hurdat_atl AL051945 22.6000 -95.3000 TS 55 0 7 336
1945236N21266 1945 51 NA GM NOT_NAMED 1945-08-24 21:00:00 TS 22.9425 -95.4575 main 235 224 P_____________ AL051945 22.9425 -95.4575 TS 57 0 8 338
1945236N21266 1945 51 NA GM NOT_NAMED 1945-08-25 00:00:00 TS 23.3000 -95.6000 60 hurdat_atl main 224 213 O_____________ hurdat_atl AL051945 23.3000 -95.6000 TS 60 0 7 342
1945236N21266 1945 51 NA GM NOT_NAMED 1945-08-25 03:00:00 TS 23.6500 -95.7076 main 213 200 P_____________ AL051945 23.6500 -95.7076 TS 65 1 7 345
1945236N21266 1945 51 NA GM NOT_NAMED 1945-08-25 06:00:00 TS 24.0000 -95.8000 70 hurdat_atl main 200 179 O_____________ hurdat_atl AL051945 24.0000 -95.8000 HU 70 1 7 346
1945236N21266 1945 51 NA GM NOT_NAMED 1945-08-25 09:00:00 TS 24.3575 -95.9000 main 174 151 P_____________ AL051945 24.3575 -95.9000 HU 75 1 7 345
1945236N21266 1945 51 NA GM NOT_NAMED 1945-08-25 12:00:00 TS 24.7000 -96.0000 80 hurdat_atl main 151 128 O_____________ hurdat_atl AL051945 24.7000 -96.0000 HU 80 1 7 344
1945236N21266 1945 51 NA GM NOT_NAMED 1945-08-25 15:00:00 TS 25.0075 -96.1001 main 128 105 P_____________ AL051945 25.0075 -96.1001 HU 82 1 6 343
1945236N21266 1945 51 NA GM NOT_NAMED 1945-08-25 18:00:00 TS 25.3000 -96.2000 85 hurdat_atl main 105 90 O_____________ hurdat_atl AL051945 25.3000 -96.2000 HU 85 2 6 343
1945236N21266 1945 51 NA GM NOT_NAMED 1945-08-25 21:00:00 TS 25.6000 -96.3001 main 90 70 P_____________ AL051945 25.6000 -96.3001 HU 87 2 6 343
1945236N21266 1945 51 NA GM NOT_NAMED 1945-08-26 00:00:00 TS 25.9000 -96.4000 90 hurdat_atl main 70 60 O_____________ hurdat_atl AL051945 25.9000 -96.4000 HU 90 2 6 343
1945236N21266 1945 51 NA GM NOT_NAMED 1945-08-26 03:00:00 TS 26.2075 -96.5000 main 63 63 P_____________ AL051945 26.2075 -96.5000 HU 92 2 6 343
1945236N21266 1945 51 NA GM NOT_NAMED 1945-08-26 06:00:00 TS 26.5000 -96.6000 95 hurdat_atl main 73 68 O_____________ hurdat_atl AL051945 26.5000 -96.6000 HU 95 2 6 342
1945236N21266 1945 51 NA GM NOT_NAMED 1945-08-26 09:00:00 TS 26.7725 -96.7075 main 72 68 P_____________ AL051945 26.7725 -96.7075 HU 97 3 5 340
1945236N21266 1945 51 NA GM NOT_NAMED 1945-08-26 12:00:00 TS 27.0000 -96.8000 100 hurdat_atl main 68 50 O_____________ hurdat_atl AL051945 27.0000 -96.8000 HU 100 3 4 342
1945236N21266 1945 51 NA GM NOT_NAMED 1945-08-26 15:00:00 TS 27.1725 -96.8576 main 50 45 P_____________ AL051945 27.1725 -96.8576 HU 100 3 3 344
1945236N21266 1945 51 NA GM NOT_NAMED 1945-08-26 18:00:00 TS 27.3000 -96.9000 100 hurdat_atl main 45 31 O_____________ hurdat_atl AL051945 27.3000 -96.9000 HU 100 3 2 339
1945236N21266 1945 51 NA GM NOT_NAMED 1945-08-26 21:00:00 TS 27.4000 -96.9575 main 31 29 P_____________ AL051945 27.4000 -96.9575 HU 100 3 2 335
1945236N21266 1945 51 NA GM NOT_NAMED 1945-08-27 00:00:00 TS 27.5000 -97.0000 100 hurdat_atl main 29 29 O_____________ hurdat_atl AL051945 27.5000 -97.0000 HU 100 3 2 344
1945236N21266 1945 51 NA GM NOT_NAMED 1945-08-27 03:00:00 TS 27.6350 -97.0299 main 29 19 P_____________ AL051945 27.6350 -97.0299 HU 100 3 3 0
1945236N21266 1945 51 NA GM NOT_NAMED 1945-08-27 06:00:00 TS 27.8000 -97.0000 100 hurdat_atl main 19 11 O_____________ hurdat_atl AL051945 27.8000 -97.0000 HU 100 3 4 20
1945236N21266 1945 51 NA GM NOT_NAMED 1945-08-27 09:00:00 TS 27.9925 -96.8800 main 11 9 P_____________ AL051945 27.9925 -96.8800 HU 100 3 5 34
1945236N21266 1945 51 NA GM NOT_NAMED 1945-08-27 12:00:00 TS 28.2000 -96.7000 100 963 hurdat_atl main 9 0 O_____________ hurdat_atl AL051945 28.2000 -96.7000 L HU 100 963 3 5 39
1945236N21266 1945 51 NA GM NOT_NAMED 1945-08-27 15:00:00 TS 28.4076 -96.4926 main 0 0 P_____________ AL051945 28.4076 -96.4926 HU 95 964 2 5 41
1945236N21266 1945 51 NA GM NOT_NAMED 1945-08-27 18:00:00 TS 28.6000 -96.3000 90 966 hurdat_atl main 9 0 O_____________ hurdat_atl AL051945 28.6000 -96.3000 HU 90 966 2 4 40
1945236N21266 1945 51 NA NA NOT_NAMED 1945-08-27 21:00:00 TS 28.7425 -96.1774 main 0 0 P_____________ AL051945 28.7425 -96.1774 HU 82 969 1 3 30
1945236N21266 1945 51 NA NA NOT_NAMED 1945-08-28 00:00:00 TS 28.9000 -96.1000 75 hurdat_atl main 0 0 I_____________ hurdat_atl AL051945 28.9000 -96.1000 HU 75 973 1 4 18
1945236N21266 1945 51 NA NA NOT_NAMED 1945-08-28 03:00:00 TS 29.1350 -96.0276 main 0 0 P_____________ AL051945 29.1350 -96.0276 HU 70 976 1 5 10
1945236N21266 1945 51 NA NA NOT_NAMED 1945-08-28 06:00:00 TS 29.4000 -96.0000 65 980 hurdat_atl main 0 0 O_____________ hurdat_atl AL051945 29.4000 -96.0000 HU 65 980 1 5 3
1945236N21266 1945 51 NA NA NOT_NAMED 1945-08-28 09:00:00 TS 29.6425 -96.0275 main 0 0 P_____________ AL051945 29.6425 -96.0275 HU 57 983 0 5 350
1945236N21266 1945 51 NA NA NOT_NAMED 1945-08-28 12:00:00 TS 29.9000 -96.1000 50 987 hurdat_atl main 0 0 O_____________ hurdat_atl AL051945 29.9000 -96.1000 TS 50 987 0 6 346
1945236N21266 1945 51 NA NA NOT_NAMED 1945-08-28 15:00:00 TS 30.2000 -96.1850 main 0 0 P_____________ AL051945 30.2000 -96.1850 TS 45 990 0 6 344
1945236N21266 1945 51 NA NA NOT_NAMED 1945-08-28 18:00:00 TS 30.5000 -96.3000 40 993 hurdat_atl main 0 0 O_____________ hurdat_atl AL051945 30.5000 -96.3000 TS 40 993 0 6 339
1945236N21266 1945 51 NA NA NOT_NAMED 1945-08-28 21:00:00 TS 30.7574 -96.4277 main 0 0 P_____________ AL051945 30.7574 -96.4277 TS 37 995 0 6 333
1945236N21266 1945 51 NA NA NOT_NAMED 1945-08-29 00:00:00 TS 31.0000 -96.6000 35 998 hurdat_atl main 0 0 O_____________ hurdat_atl AL051945 31.0000 -96.6000 TS 35 998 0 6 325
1945236N21266 1945 51 NA NA NOT_NAMED 1945-08-29 03:00:00 TS 31.2651 -96.8424 main 0 0 P_____________ AL051945 31.2651 -96.8424 TS 32 1000 -1 7 319
1945236N21266 1945 51 NA NA NOT_NAMED 1945-08-29 06:00:00 TS 31.5000 -97.1000 30 1002 hurdat_atl main 0 0 O_____________ hurdat_atl AL051945 31.5000 -97.1000 TD 30 1002 -1 6 315
1945236N21266 1945 51 NA NA NOT_NAMED 1945-08-29 09:00:00 TS 31.6649 -97.3077 main 0 0 P_____________ AL051945 31.6649 -97.3077 TD 27 1004 -1 5 311
1945236N21266 1945 51 NA NA NOT_NAMED 1945-08-29 12:00:00 TS 31.8000 -97.5000 25 1006 hurdat_atl main 0 0 O_____________ hurdat_atl AL051945 31.8000 -97.5000 TD 25 1006 -1 4 310
1945236N21266 1945 51 NA NA NOT_NAMED 1945-08-29 15:00:00 TS 31.9451 -97.6973 main 0 0 P_____________ AL051945 31.9451 -97.6973 TD 22 1007 -1 5 311
1945236N21266 1945 51 NA NA NOT_NAMED 1945-08-29 18:00:00 TS 32.1000 -97.9000 20 1009 hurdat_atl main 0 O_____________ hurdat_atl AL051945 32.1000 -97.9000 TD 20 1009 -1 5 312

IBTrACS Databaseについて

本データベースは、米国NOAAが公開する1842年以降の世界の熱帯低気圧のベストトラックデータアーカイブInternational Best Track Archive for Climate Stewardship (IBTrACS)を、ウェブで閲覧しやすい形式に変換したものです。

最終更新日:2021-10-08